Hauptseite
METAR-TAF:

METAR-TAF

Flughäfen :

Flughafen Grenchen

Grenchen, Schweiz

Breite: 47-10-53N, Länge: 007-24-59E, Höhe: 430 m

Beobachtung

Neuester Wetterbericht von vor 32 Minuten, um 01:50 UTC
Wind 9 kt aus Ost/Nordost
Temperatur 3°C
Luftfeuchtigkeit 70%
Luftdruck 1022 hPa
Sichtweite 10 km oder mehr
Durchbrochene Bewölkung in der Höhe von 2500 ft

METAR: LSZG 180150Z AUTO 07009KT 9999 BKN025 03/M02 Q1022

Zeit: 03:22 (02:22 UTC)

Prognose

Neuester Wetterbericht von vor 8 Stunden und 10 Minuten, um 18:12 UTC
Gültige Prognose vom 17 um 18 UTC bis 17 um 24 UTC
Wind 3 kt aus unterschiedlichen Richtungen
Sichtweite 10 km oder mehr
keine Wolken unter 1500 m und keine Kumulonimbus oder Gewitterwolken
Übergehend zu
vom 17 um 21 UTC bis 17 um 24 UTC
Sichtweite 10 km oder mehr
Durchbrochene Bewölkung in der Höhe von 2000 ft

TAF: LSZG 171812Z 1718/1724 VRB03KT CAVOK BECMG 1721/1724 9999 BKN020

Wetterbeobachtungen und Prognosen von mehr als 4000 Flughäfen (METAR und TAF Bericht).

Die verfügbaren Stationen werden durch gelbe und rote Markierungen auf der Karte dargestellt.

Führen Sie die Maus auf sie, um den Namen der Station zu sehen.

Darauf klicken, um die Beobachtung von Wetterbeobachtungen und Prognosen zu sehen.

Um die Karte zu ändern : klicken Sie auf den grünen Tasten mit einem schwarzen Kreuz Zum Vergrößern, auf den grünen Button mit einem Gedankenstrich zu verkleinern, oder auf die grünen Pfeile für benachbarte Karten.


METAR-TAF: